Data for 04/08/2009

Time Sea-Level Adjusted Pressure Absolute Pressure Temperature Relative Humidity Dew Point   
(mb) (inHg) (mb) (inHg) (C) (F) (%) (C) (F)
00:05 1012 29.88 841 24.83 6.9 44.4 35 -7.4 18.6
00:10 1012 29.88 841 24.83 6.9 44.4 34 -7.9 17.8
00:15 1012 29.88 841 24.83 7.2 44.9 34 -7.8 18
00:20 1012 29.88 841 24.83 6.9 44.4 36 -7 19.3
00:25 1012 29.88 841 24.83 6.9 44.3 35 -7.6 18.3
00:30 1012 29.88 841 24.83 7.1 44.8 33 -7.9 17.7
00:35 1012 29.88 841 24.83 7.2 44.9 33 -8 17.6
00:40 1012 29.88 841 24.83 7.3 45.1 33 -8 17.7
00:45 1012 29.88 841 24.83 7.1 44.7 34 -7.7 18.1
00:50 1011 29.85 841 24.83 6.6 43.8 36 -7.5 18.6
00:55 1011 29.85 841 24.83 6.3 43.3 36 -7.6 18.3
01:00 1011 29.85 840 24.81 6.2 43.1 37 -7.5 18.5
01:05 1011 29.85 841 24.83 6 42.9 38 -7.3 18.8
01:10 1011 29.85 841 24.83 5.9 42.7 36 -7.9 17.7
01:15 1011 29.85 840 24.81 6.1 42.9 37 -7.7 18.2
01:20 1011 29.85 840 24.81 6 42.8 37 -7.6 18.3
01:25 1011 29.85 840 24.81 5.9 42.6 37 -7.7 18.2
01:30 1011 29.85 840 24.81 5.9 42.7 36 -7.9 17.7
01:35 1011 29.85 840 24.81 6.1 43 35 -8.1 17.4
01:40 1011 29.85 840 24.81 6.4 43.5 38 -6.8 19.7
01:45 1011 29.85 841 24.83 6.4 43.5 34 -8.6 16.6
01:50 1012 29.88 841 24.83 6.5 43.6 37 -7.4 18.7
01:55 1012 29.88 841 24.83 6 42.8 35 -8.5 16.7
02:00 1012 29.88 841 24.83 6 42.9 36 -8 17.6
02:05 1012 29.88 841 24.83 5.4 41.8 40 -7.1 19.2
02:10 1011 29.85 841 24.83 4.8 40.7 40 -7.7 18.2
02:15 1011 29.85 841 24.83 5.5 41.9 33 -9.5 15
02:20 1011 29.85 841 24.83 6.4 43.5 31 -9.6 14.7
02:25 1011 29.85 840 24.81 6.9 44.4 33 -8.3 17.1
02:30 1011 29.85 840 24.81 6.2 43.2 35 -8.2 17.2
02:35 1011 29.85 840 24.81 5.8 42.4 38 -7.5 18.6
02:40 1011 29.85 840 24.81 5.3 41.5 38 -8.1 17.5
02:45 1011 29.85 840 24.81 5.3 41.5 38 -8 17.6
02:50 1011 29.85 840 24.81 5.4 41.7 38 -7.8 18
02:55 1011 29.85 840 24.81 5.5 41.8 38 -7.8 18
03:00 1010 29.83 840 24.81 5.6 42 38 -7.7 18.2
03:05 1010 29.83 840 24.81 5.9 42.5 36 -8.1 17.5
03:10 1010 29.83 839 24.78 6.5 43.7 35 -7.8 17.9
03:15 1010 29.83 839 24.78 6.6 43.8 36 -7.4 18.7
03:20 1010 29.83 839 24.78 6.5 43.7 35 -7.7 18.1
03:25 1010 29.83 839 24.78 6.7 44.1 35 -7.6 18.3
03:30 1010 29.83 839 24.78 6.6 43.9 36 -7.4 18.6
03:35 1010 29.83 839 24.78 6.4 43.6 37 -7.3 18.8
03:40 1010 29.83 839 24.78 6.4 43.5 37 -7.3 18.9
03:45 1010 29.83 839 24.78 6.4 43.4 37 -7.3 18.9
03:50 1010 29.83 839 24.78 6.4 43.6 36 -7.4 18.6
03:55 1010 29.83 839 24.78 6.5 43.7 37 -7.1 19.2
04:00 1010 29.83 839 24.78 6.5 43.6 37 -7.3 18.9
04:05 1010 29.83 839 24.78 6.4 43.4 39 -6.6 20.1
04:10 1010 29.83 839 24.78 6 42.8 39 -6.8 19.7
04:15 1009 29.8 839 24.78 5.9 42.5 39 -7 19.5
04:20 1009 29.8 839 24.78 5.7 42.3 40 -7 19.4
04:25 1009 29.8 839 24.78 5.8 42.5 39 -7.2 19.1
04:30 1009 29.8 838 24.75 5.9 42.5 39 -7.1 19.1
04:35 1009 29.8 838 24.75 5.9 42.7 38 -7.5 18.5
04:40 1009 29.8 838 24.75 6.1 43 38 -7.2 19.1
04:45 1009 29.8 838 24.75 6 42.9 38 -7.2 19.1
04:50 1009 29.8 838 24.75 6 42.7 39 -6.9 19.6
04:55 1009 29.8 838 24.75 5.9 42.5 39 -7.1 19.2
05:00 1009 29.8 838 24.75 5.8 42.4 40 -6.9 19.6
05:05 1009 29.8 838 24.75 5.7 42.3 40 -6.7 19.9
05:10 1009 29.8 838 24.75 5.8 42.4 39 -7.1 19.2
05:15 1009 29.8 838 24.75 6 42.8 38 -7.4 18.8
05:20 1009 29.8 838 24.75 6.2 43.1 38 -7 19.3
05:25 1009 29.8 838 24.75 6 42.9 39 -6.9 19.5
05:30 1009 29.8 838 24.75 6 42.9 39 -7 19.5
05:35 1009 29.8 838 24.75 6 42.8 39 -7 19.4
05:40 1009 29.8 838 24.75 5.9 42.6 39 -6.9 19.6
05:45 1009 29.8 838 24.75 5.9 42.6 40 -6.8 19.7
05:50 1009 29.8 838 24.75 5.8 42.5 39 -6.9 19.5
05:55 1009 29.8 838 24.75 6 42.7 39 -7.1 19.2
06:00 1009 29.8 838 24.75 6 42.8 38 -7.1 19.2
06:05 1008 29.77 838 24.75 6.1 42.9 38 -7.2 19
06:10 1008 29.77 838 24.75 6 42.9 38 -7.3 18.9
06:15 1008 29.77 837 24.72 6 42.9 38 -7.1 19.2
06:20 1008 29.77 837 24.72 6 42.9 39 -7 19.3
06:25 1008 29.77 837 24.72 6 42.8 39 -6.9 19.7
06:30 1008 29.77 837 24.72 5.9 42.6 40 -6.8 19.8
06:35 1008 29.77 837 24.72 5.8 42.5 40 -6.8 19.8
06:40 1008 29.77 837 24.72 5.8 42.5 40 -6.8 19.8
06:45 1008 29.77 837 24.72 5.9 42.6 39 -7 19.4
06:50 1008 29.77 837 24.72 5.8 42.5 39 -6.9 19.5
06:55 1007 29.74 836 24.69 5.8 42.4 39 -7.1 19.3
07:00 1007 29.74 836 24.69 5.9 42.6 39 -7 19.4
07:05 1007 29.74 836 24.69 5.9 42.6 39 -7.1 19.2
07:10 1007 29.74 836 24.69 6.1 43 37 -7.4 18.6
07:15 1007 29.74 836 24.69 6.2 43.1 37 -7.4 18.7
07:20 1007 29.74 836 24.69 6.2 43.2 37 -7.5 18.4
07:25 1007 29.74 836 24.69 6.3 43.4 37 -7.5 18.5
07:30 1007 29.74 836 24.69 6.5 43.6 35 -7.9 17.8
07:35 1007 29.74 836 24.69 6.6 43.9 35 -7.9 17.8
07:40 1007 29.74 836 24.69 6.5 43.7 36 -7.5 18.5
07:45 1007 29.74 836 24.69 6.4 43.5 36 -7.7 18.2
07:50 1007 29.74 836 24.69 6.4 43.5 36 -7.7 18.2
07:55 1007 29.74 836 24.69 6.4 43.4 36 -7.5 18.5
08:00 1007 29.74 836 24.69 6.5 43.6 35 -7.9 17.8
08:05 1007 29.74 836 24.69 6.7 44 35 -7.8 18
08:10 1007 29.74 836 24.69 6.8 44.2 34 -7.9 17.8
08:15 1007 29.74 836 24.69 6.7 44.1 35 -7.6 18.4
08:20 1007 29.74 836 24.69 6.7 44 36 -7.5 18.5
08:25 1007 29.74 836 24.69 6.6 43.9 36 -7.5 18.5
08:30 1007 29.74 836 24.69 6.6 43.9 36 -7.3 18.8
08:35 1007 29.74 836 24.69 6.8 44.2 35 -7.5 18.4
08:40 1007 29.74 836 24.69 6.9 44.5 35 -7.6 18.4
08:45 1006 29.71 836 24.69 6.9 44.3 35 -7.6 18.4
08:50 1006 29.71 836 24.69 6.9 44.4 35 -7.7 18.2
08:55 1006 29.71 835 24.66 7.1 44.7 35 -7.2 19
09:00 1006 29.71 835 24.66 7 44.5 36 -7 19.4
09:05 1006 29.71 835 24.66 6.9 44.3 35 -7.4 18.7
09:10 1006 29.71 835 24.66 7 44.7 34 -7.8 18
09:15 1006 29.71 835 24.66 7.2 44.9 33 -7.9 17.7
09:20 1006 29.71 835 24.66 7.3 45.2 34 -7.7 18.2
09:25 1006 29.71 835 24.66 7.2 44.9 35 -7.5 18.5
09:30 1006 29.71 835 24.66 7.2 44.9 35 -7.4 18.7
09:35 1006 29.71 835 24.66 7.2 45 34 -7.6 18.4
09:40 1006 29.71 835 24.66 7.3 45.2 34 -7.4 18.6
09:45 1006 29.71 835 24.66 7.4 45.4 34 -7.4 18.7
09:50 1006 29.71 835 24.66 7.5 45.6 34 -7.4 18.6
09:55 1006 29.71 835 24.66 7.6 45.6 34 -7.4 18.6
10:00 1006 29.71 835 24.66 7.6 45.6 34 -7.3 18.9
10:05 1006 29.71 835 24.66 7.6 45.7 34 -7.1 19.3
10:10 1006 29.71 835 24.66 7.8 46.1 33 -7.5 18.4
10:15 1006 29.71 835 24.66 8.1 46.5 32 -7.6 18.3
10:20 1006 29.71 835 24.66 8.3 47 32 -7.3 18.8
10:25 1006 29.71 835 24.66 8.5 47.2 33 -7 19.4
10:30 1005 29.68 835 24.66 8.7 47.6 31 -7.3 18.8
10:35 1005 29.68 834 24.63 8.8 47.8 32 -6.9 19.6
10:40 1005 29.68 834 24.63 9.1 48.4 31 -7.1 19.2
10:45 1005 29.68 834 24.63 9 48.1 31 -7.4 18.7
10:50 1005 29.68 834 24.63 8.9 48 32 -7.1 19.2
10:55 1005 29.68 834 24.63 9.1 48.4 30 -7.6 18.4
11:00 1005 29.68 834 24.63 9.6 49.2 29 -7.4 18.7
11:05 1005 29.68 834 24.63 9.8 49.7 30 -6.9 19.6
11:10 1005 29.68 834 24.63 9.8 49.7 31 -6.4 20.4
11:15 1005 29.68 834 24.63 9.7 49.5 31 -6.7 20
11:20 1005 29.68 834 24.63 9.7 49.5 31 -6.6 20.1
11:25 1005 29.68 834 24.63 9.6 49.4 30 -7 19.4
11:30 1005 29.68 834 24.63 9.5 49.1 30 -7.1 19.2
11:35 1005 29.68 834 24.63 9.5 49.2 31 -6.7 19.9
11:40 1005 29.68 834 24.63 9.6 49.3 31 -6.7 19.9
11:45 1005 29.68 834 24.63 10 50 29 -7 19.3
11:50 1005 29.68 834 24.63 9.7 49.5 30 -7.1 19.3
11:55 1005 29.68 834 24.63 9.7 49.4 30 -7.1 19.2
12:00 1005 29.68 834 24.63 9.8 49.6 30 -7 19.3
12:05 1005 29.68 834 24.63 9.9 49.8 30 -6.7 19.9
12:10 1004 29.65 834 24.63 10 49.9 30 -6.8 19.7
12:15 1004 29.65 834 24.63 10 50 31 -6.5 20.2
12:20 1005 29.68 834 24.63 10.1 50.3 30 -6.5 20.2
12:25 1004 29.65 834 24.63 10 50 30 -6.7 20
12:30 1005 29.68 834 24.63 9.9 49.9 31 -6.4 20.5
12:35 1004 29.65 834 24.63 10.1 50.2 31 -6.3 20.7
12:40 1004 29.65 834 24.63 10.2 50.4 31 -6.2 20.8
12:45 1004 29.65 834 24.63 10.1 50.2 31 -6.2 20.8
12:50 1004 29.65 834 24.63 10.1 50.1 32 -5.7 21.8
12:55 1004 29.65 834 24.63 10.3 50.5 32 -5.7 21.8
13:00 1004 29.65 834 24.63 10.3 50.5 32 -5.8 21.5
13:05 1004 29.65 834 24.63 10.5 50.8 32 -5.6 22
13:10 1004 29.65 834 24.63 10.6 51.1 31 -5.7 21.8
13:15 1004 29.65 834 24.63 11 51.7 31 -5.5 22.1
13:20 1004 29.65 833 24.6 10.8 51.5 31 -5.5 22.1
13:25 1004 29.65 833 24.6 10.7 51.2 33 -4.9 23.1
13:30 1004 29.65 833 24.6 10.7 51.3 33 -4.9 23.2
13:35 1004 29.65 833 24.6 10.7 51.3 34 -4.6 23.8
13:40 1004 29.65 834 24.63 10.6 51 33 -5 23
13:45 1004 29.65 834 24.63 10.3 50.5 32 -5.6 21.9
13:50 1004 29.65 833 24.6 10.1 50.2 33 -5.3 22.4
13:55 1004 29.65 833 24.6 10.3 50.5 33 -5.1 22.8
14:00 1004 29.65 833 24.6 10.2 50.4 33 -5.5 22.1
14:05 1004 29.65 833 24.6 10.2 50.4 33 -5.3 22.5
14:10 1004 29.65 833 24.6 10.3 50.5 34 -5.1 22.9
14:15 1004 29.65 833 24.6 10.3 50.6 36 -4.1 24.7
14:20 1004 29.65 833 24.6 10.3 50.5 38 -3.5 25.7
14:25 1004 29.65 833 24.6 10 50 38 -3.7 25.4
14:30 1004 29.65 833 24.6 9.7 49.4 35 -5 23.1
14:35 1004 29.65 833 24.6 10.1 50.2 35 -4.5 23.9
14:40 1004 29.65 833 24.6 10.5 50.8 34 -4.9 23.2
14:45 1004 29.65 833 24.6 10.8 51.4 33 -4.8 23.4
14:50 1004 29.65 833 24.6 10.8 51.5 33 -4.7 23.5
14:55 1004 29.65 833 24.6 11 51.7 34 -4.3 24.2
15:00 1004 29.65 833 24.6 10.7 51.3 34 -4.6 23.7
15:05 1004 29.65 833 24.6 10.7 51.3 34 -4.5 23.8
15:10 1004 29.65 833 24.6 10.7 51.3 35 -3.9 24.9
15:15 1004 29.65 833 24.6 10.7 51.3 36 -3.7 25.3
15:20 1004 29.65 833 24.6 10.8 51.4 37 -3.4 25.8
15:25 1004 29.65 833 24.6 10.9 51.6 38 -3 26.7
15:30 1004 29.65 833 24.6 10.7 51.2 36 -3.7 25.3
15:35 1004 29.65 833 24.6 10.5 50.9 36 -3.8 25.2
15:40 1004 29.65 833 24.6 10.2 50.4 38 -3.6 25.6
15:45 1004 29.65 833 24.6 10.3 50.5 39 -3.2 26.3
15:50 1004 29.65 833 24.6 10.1 50.1 37 -3.8 25.1
15:55 1004 29.65 833 24.6 9.9 49.9 36 -4.6 23.8
16:00 1004 29.65 833 24.6 9.8 49.6 38 -3.8 25.1
16:05 1004 29.65 833 24.6 10 49.9 35 -4.7 23.5
16:10 1004 29.65 833 24.6 10.2 50.4 35 -4.4 24.1
16:15 1004 29.65 833 24.6 10.4 50.6 36 -4.1 24.7
16:20 1004 29.65 833 24.6 10.3 50.5 37 -3.7 25.4
16:25 1004 29.65 833 24.6 10.2 50.3 39 -3.3 26.1
16:30 1004 29.65 833 24.6 10 50 36 -4.2 24.4
16:35 1004 29.65 833 24.6 9.8 49.6 37 -4.2 24.5
16:40 1004 29.65 833 24.6 9.8 49.7 37 -4 24.7
16:45 1004 29.65 833 24.6 9.9 49.9 36 -4.4 24.1
16:50 1004 29.65 833 24.6 9.9 49.9 41 -2.7 27.1
16:55 1004 29.65 833 24.6 9.7 49.4 49 -0.6 30.9
17:00 1004 29.65 833 24.6 9.6 49.3 52 0.3 32.5
17:05 1004 29.65 833 24.6 9.5 49.1 52 0.1 32.1
17:10 1004 29.65 833 24.6 9.4 48.9 52 0.2 32.3
17:15 1004 29.65 833 24.6 9.4 48.9 53 0.3 32.5
17:20 1004 29.65 833 24.6 9.4 48.9 53 0.4 32.7
17:25 1004 29.65 833 24.6 9.2 48.5 55 0.5 33
17:30 1004 29.65 833 24.6 9.1 48.3 55 0.5 32.9
17:35 1004 29.65 833 24.6 9 48.2 55 0.5 32.9
17:40 1004 29.65 833 24.6 8.9 48 56 0.5 32.9
17:45 1004 29.65 833 24.6 8.8 47.9 56 0.5 32.8
17:50 1004 29.65 833 24.6 8.7 47.7 57 0.6 33.1
17:55 1004 29.65 833 24.6 8.6 47.5 57 0.5 32.9
18:00 1004 29.65 833 24.6 8.4 47 59 0.9 33.6
18:05 1004 29.65 833 24.6 8.1 46.5 60 0.9 33.5
18:10 1004 29.65 833 24.6 8 46.3 62 1.1 34
18:15 1004 29.65 833 24.6 7.8 46.1 62 1 33.8
18:20 1004 29.65 833 24.6 7.8 46.1 62 1 33.7
18:25 1004 29.65 833 24.6 7.8 46.1 61 0.8 33.4
18:30 1004 29.65 833 24.6 7.9 46.1 61 0.8 33.4
18:35 1004 29.65 833 24.6 7.8 46 64 1.3 34.4
18:40 1004 29.65 833 24.6 7.3 45.2 65 1.3 34.3
18:45 1004 29.65 833 24.6 7.3 45.1 66 1.3 34.3
18:50 1004 29.65 833 24.6 7.2 44.9 65 1.1 34
18:55 1004 29.65 833 24.6 7.2 44.9 67 1.4 34.5
19:00 1004 29.65 833 24.6 6.9 44.5 67 1.4 34.4
19:05 1004 29.65 834 24.63 6.9 44.4 66 1.1 34
19:10 1004 29.65 834 24.63 6.9 44.5 67 1.3 34.3
19:15 1004 29.65 834 24.63 6.9 44.4 67 1.2 34.2
19:20 1004 29.65 834 24.63 6.9 44.4 67 1.2 34.1
19:25 1004 29.65 834 24.63 6.9 44.4 66 1.1 33.9
19:30 1005 29.68 834 24.63 6.8 44.3 68 1.3 34.4
19:35 1005 29.68 834 24.63 6.6 43.9 68 1.2 34.2
19:40 1005 29.68 834 24.63 6.7 44 67 1 33.8
19:45 1005 29.68 834 24.63 6.8 44.3 68 1.4 34.5
19:50 1005 29.68 834 24.63 6.8 44.3 66 0.9 33.7
19:55 1005 29.68 834 24.63 6.8 44.3 68 1.4 34.5
20:00 1005 29.68 834 24.63 6.9 44.4 68 1.4 34.6
20:05 1005 29.68 834 24.63 6.9 44.5 69 1.7 35.1
20:10 1005 29.68 834 24.63 6.8 44.2 71 1.9 35.4
20:15 1005 29.68 834 24.63 6.6 43.9 71 1.8 35.3
20:20 1005 29.68 834 24.63 6.6 43.8 72 1.9 35.4
20:25 1005 29.68 834 24.63 6.5 43.7 72 1.9 35.4
20:30 1005 29.68 834 24.63 6.4 43.5 74 2.1 35.8
20:35 1005 29.68 834 24.63 6.3 43.3 75 2.2 35.9
20:40 1005 29.68 834 24.63 6.2 43.2 77 2.6 36.6
20:45 1005 29.68 834 24.63 6 42.7 79 2.5 36.5
20:50 1005 29.68 834 24.63 5.6 42.1 80 2.5 36.4
20:55 1005 29.68 835 24.66 5.3 41.6 82 2.6 36.6
21:00 1005 29.68 835 24.66 5.1 41.2 83 2.5 36.5
21:05 1005 29.68 835 24.66 5 41 84 2.6 36.6
21:10 1005 29.68 835 24.66 4.9 40.9 84 2.5 36.5
21:15 1006 29.71 835 24.66 5 40.9 85 2.6 36.7
21:20 1006 29.71 835 24.66 5 40.9 85 2.6 36.7
21:25 1006 29.71 835 24.66 4.9 40.7 87 2.8 37.1
21:30 1006 29.71 835 24.66 4.9 40.8 85 2.5 36.6
21:35 1006 29.71 835 24.66 4.9 40.8 85 2.5 36.6
21:40 1006 29.71 835 24.66 4.9 40.8 87 2.9 37.2
21:45 1006 29.71 835 24.66 5 40.9 88 3.1 37.6
21:50 1006 29.71 835 24.66 4.6 40.4 89 3 37.3
21:55 1006 29.71 835 24.66 4.4 40 90 2.9 37.2
22:00 1006 29.71 835 24.66 4.3 39.7 90 2.8 37
22:05 1006 29.71 835 24.66 4.3 39.8 89 2.7 36.8
22:10 1006 29.71 835 24.66 4.3 39.8 90 2.8 37
22:15 1006 29.71 835 24.66 4.3 39.7 91 2.9 37.3
22:20 1006 29.71 835 24.66 4.2 39.5 92 3 37.4
22:25 1006 29.71 835 24.66 4.1 39.5 92 2.9 37.2
22:30 1006 29.71 835 24.66 4 39.3 92 2.8 37
22:35 1006 29.71 835 24.66 4.1 39.3 92 2.8 37.1
22:40 1006 29.71 835 24.66 4.1 39.4 90 2.6 36.7
22:45 1006 29.71 835 24.66 4.1 39.4 91 2.8 37
22:50 1006 29.71 835 24.66 4 39.2 91 2.7 36.8
22:55 1006 29.71 835 24.66 4 39.2 92 2.7 36.9
23:00 1006 29.71 835 24.66 3.9 39.1 90 2.5 36.4
23:05 1006 29.71 835 24.66 4 39.1 91 2.7 36.8
23:10 1006 29.71 835 24.66 3.9 39 90 2.5 36.5
23:15 1006 29.71 835 24.66 3.9 39 90 2.3 36.2
23:20 1006 29.71 835 24.66 3.9 39.1 90 2.5 36.5
23:25 1006 29.71 835 24.66 4 39.1 91 2.7 36.8
23:30 1006 29.71 835 24.66 3.8 38.9 92 2.7 36.8
23:35 1006 29.71 835 24.66 3.8 38.8 91 2.5 36.5
23:40 1006 29.71 835 24.66 3.7 38.6 92 2.5 36.4
23:45 1006 29.71 835 24.66 3.6 38.5 92 2.4 36.3
23:50 1006 29.71 835 24.66 3.5 38.3 93 2.4 36.4
23:55 1006 29.71 835 24.66 3.5 38.2 93 2.4 36.4
24:00 1006 29.71 835 24.66 3.5 38.2 94 2.5 36.5